Time;durP1;ratioP1;P1;durP2;ratioP2;P2;SDS_P1;SDS_P2;PMS_P1;PMS_P2;Temp;Humidity;BMP_temperature;BMP_pressure;BME280_temperature;BME280_humidity;BME280_pressure;Samples;Min_cycle;Max_cycle;Signal;HPM_P1;HPM_P2
2022/06/18 00:02:17;;;;;;;;;;;23.50;88.10;;;;;;4346514;32;45087;-78
2022/06/18 00:04:47;;;;;;;;;;;23.50;88.20;;;;;;4347164;32;45853;-78
2022/06/18 00:07:20;;;;;;;;;;;23.50;87.40;;;;;;4347156;32;44101;-79
2022/06/18 00:10:06;;;;;;;;;;;23.50;87.70;;;;;;4346902;32;43494;-79
2022/06/18 00:15:31;;;;;;;;;;;23.50;88.10;;;;;;4360339;32;43478;-79
2022/06/18 00:17:58;;;;;;;;;;;23.50;87.70;;;;;;4360255;32;43307;-80
2022/06/18 00:20:27;;;;;;;;;;;23.50;87.60;;;;;;4360203;32;44109;-79
2022/06/18 00:22:56;;;;;;;;;;;23.50;87.70;;;;;;4346590;32;43872;-79
2022/06/18 00:25:26;;;;;;;;;;;23.50;87.80;;;;;;4346526;32;45060;-79
2022/06/18 00:27:54;;;;;;;;;;;23.40;87.30;;;;;;4346865;32;44071;-80
2022/06/18 00:30:22;;;;;;;;;;;23.40;88.00;;;;;;4346560;32;42396;-79
2022/06/18 00:32:49;;;;;;;;;;;23.40;87.70;;;;;;4359860;32;43279;-78
2022/06/18 00:35:17;;;;;;;;;;;23.40;87.40;;;;;;4358661;32;42754;-80
2022/06/18 00:37:44;;;;;;;;;;;23.40;88.00;;;;;;4346319;32;43476;-77
2022/06/18 00:40:21;;;;;;;;;;;23.40;87.90;;;;;;4360134;32;43491;-79
2022/06/18 00:42:49;;;;;;;;;;;23.40;87.70;;;;;;4360238;32;43467;-78
2022/06/18 00:45:18;;;;;;;;;;;23.40;88.80;;;;;;4346376;33;43639;-80
2022/06/18 00:47:45;;;;;;;;;;;23.40;87.60;;;;;;4346750;33;43372;-78
2022/06/18 00:50:12;;;;;;;;;;;23.40;87.70;;;;;;4348546;32;43466;-78
2022/06/18 00:52:47;;;;;;;;;;;23.40;87.80;;;;;;4351701;32;43186;-79
2022/06/18 00:55:17;;;;;;;;;;;23.30;87.90;;;;;;4351296;32;42697;-78
2022/06/18 00:58:14;;;;;;;;;;;23.30;88.00;;;;;;4364439;32;43468;-79
2022/06/18 01:00:43;;;;;;;;;;;23.30;88.10;;;;;;4339956;32;20004;-79
2022/06/18 01:03:22;;;;;;;;;;;23.30;88.10;;;;;;4350702;32;44588;-79
2022/06/18 01:05:50;;;;;;;;;;;23.30;88.00;;;;;;4351643;32;43473;-79
2022/06/18 01:08:19;;;;;;;;;;;23.30;88.40;;;;;;4351489;32;44838;-79
2022/06/18 01:10:53;;;;;;;;;;;23.40;88.80;;;;;;4364707;32;43885;-78
2022/06/18 01:13:23;;;;;;;;;;;23.30;89.00;;;;;;4351560;32;43850;-79
2022/06/18 01:15:52;;;;;;;;;;;23.30;88.70;;;;;;4364785;32;43209;-80
2022/06/18 01:18:20;;;;;;;;;;;23.30;89.20;;;;;;4363942;32;44223;-79
2022/06/18 01:20:53;;;;;;;;;;;23.30;88.40;;;;;;4351110;32;43241;-77
2022/06/18 01:23:34;;;;;;;;;;;23.30;89.10;;;;;;4364853;32;43274;-77
2022/06/18 01:26:01;;;;;;;;;;;23.30;88.70;;;;;;4351322;32;45437;-78
2022/06/18 01:28:29;;;;;;;;;;;23.30;89.10;;;;;;4350847;32;44432;-77
2022/06/18 01:30:56;;;;;;;;;;;23.30;88.60;;;;;;4352064;32;20047;-78
2022/06/18 01:33:23;;;;;;;;;;;23.30;89.40;;;;;;4350771;32;42274;-78
2022/06/18 01:35:52;;;;;;;;;;;23.30;88.80;;;;;;4351351;32;45409;-78
2022/06/18 01:38:20;;;;;;;;;;;23.30;88.50;;;;;;4350810;32;42977;-78
2022/06/18 01:40:55;;;;;;;;;;;23.30;89.60;;;;;;4350742;32;44900;-79
2022/06/18 01:43:23;;;;;;;;;;;23.30;88.50;;;;;;4364600;32;44357;-80
2022/06/18 01:45:55;;;;;;;;;;;23.30;88.30;;;;;;4351508;32;44254;-79
2022/06/18 01:48:25;;;;;;;;;;;23.20;88.70;;;;;;4351110;32;43501;-79
2022/06/18 01:50:55;;;;;;;;;;;23.30;88.90;;;;;;4351407;32;43886;-79
2022/06/18 01:53:25;;;;;;;;;;;23.30;88.90;;;;;;4351108;32;43024;-78
2022/06/18 01:55:54;;;;;;;;;;;23.20;89.00;;;;;;4350560;32;43967;-78
2022/06/18 01:58:25;;;;;;;;;;;23.20;89.40;;;;;;4363164;32;44238;-77
2022/06/18 02:00:55;;;;;;;;;;;23.20;89.20;;;;;;4363156;32;42811;-78
2022/06/18 02:03:22;;;;;;;;;;;23.20;89.70;;;;;;4347793;32;42670;-77
2022/06/18 02:05:50;;;;;;;;;;;23.20;89.20;;;;;;4361674;32;43436;-79
2022/06/18 02:08:17;;;;;;;;;;;23.20;88.70;;;;;;4348429;32;43910;-78
2022/06/18 02:10:57;;;;;;;;;;;23.20;89.50;;;;;;4348825;32;43856;-78
2022/06/18 02:13:29;;;;;;;;;;;23.20;89.60;;;;;;4360804;32;43302;-78
2022/06/18 02:15:58;;;;;;;;;;;23.20;89.70;;;;;;4360768;32;43958;-78
2022/06/18 02:18:27;;;;;;;;;;;23.10;89.90;;;;;;4361927;32;45690;-78
2022/06/18 02:20:55;;;;;;;;;;;23.10;89.10;;;;;;4348041;32;42572;-79
2022/06/18 02:23:23;;;;;;;;;;;23.10;89.30;;;;;;4361868;32;44296;-78
2022/06/18 02:25:51;;;;;;;;;;;23.10;89.40;;;;;;4348185;32;42856;-78
2022/06/18 02:28:22;;;;;;;;;;;23.10;89.40;;;;;;4348704;32;43495;-78
2022/06/18 02:30:50;;;;;;;;;;;23.10;89.80;;;;;;4361797;32;44595;-79
2022/06/18 02:33:18;;;;;;;;;;;23.10;89.90;;;;;;4362510;32;20039;-79
2022/06/18 02:35:45;;;;;;;;;;;23.10;89.60;;;;;;4361301;32;43901;-78
2022/06/18 02:38:17;;;;;;;;;;;23.00;89.10;;;;;;4348002;32;44435;-78
2022/06/18 02:40:44;;;;;;;;;;;23.00;89.20;;;;;;4347981;32;43605;-78
2022/06/18 02:43:12;;;;;;;;;;;23.00;89.40;;;;;;4361529;32;44227;-78
2022/06/18 02:45:41;;;;;;;;;;;23.00;89.50;;;;;;4348252;32;43009;-80
2022/06/18 02:48:09;;;;;;;;;;;23.00;89.70;;;;;;4348608;32;44141;-78
2022/06/18 02:50:39;;;;;;;;;;;22.90;90.00;;;;;;4361227;32;43007;-78
2022/06/18 02:53:07;;;;;;;;;;;23.00;89.70;;;;;;4348105;32;43872;-78
2022/06/18 02:55:36;;;;;;;;;;;22.90;89.60;;;;;;4361282;32;43238;-77
2022/06/18 02:58:10;;;;;;;;;;;22.90;90.00;;;;;;4348038;32;43194;-78
2022/06/18 03:00:38;;;;;;;;;;;22.90;90.00;;;;;;4347940;32;45991;-78
2022/06/18 03:03:06;;;;;;;;;;;22.90;89.70;;;;;;4360760;32;44746;-78
2022/06/18 03:05:33;;;;;;;;;;;22.90;89.90;;;;;;4359922;32;42650;-78
2022/06/18 03:08:00;;;;;;;;;;;22.90;89.70;;;;;;4360127;32;43281;-78
2022/06/18 03:13:17;;;;;;;;;;;22.90;89.60;;;;;;4360581;32;45755;-78
2022/06/18 03:15:46;;;;;;;;;;;22.80;90.00;;;;;;4360686;32;42993;-78
2022/06/18 03:18:14;;;;;;;;;;;22.80;89.70;;;;;;4347789;32;44248;-80
2022/06/18 03:20:59;;;;;;;;;;;22.80;89.80;;;;;;4360844;32;45373;-78
2022/06/18 03:23:27;;;;;;;;;;;22.70;90.00;;;;;;4361048;32;44749;-78
2022/06/18 03:25:54;;;;;;;;;;;22.70;89.70;;;;;;4360528;32;43744;-80
2022/06/18 03:28:22;;;;;;;;;;;22.80;89.90;;;;;;4360825;32;43403;-78
2022/06/18 03:30:49;;;;;;;;;;;22.80;90.10;;;;;;4360935;32;43975;-79
2022/06/18 03:33:16;;;;;;;;;;;22.70;90.00;;;;;;4360801;32;43883;-79
2022/06/18 03:35:45;;;;;;;;;;;22.70;90.10;;;;;;4347052;32;43303;-79
2022/06/18 03:38:14;;;;;;;;;;;22.80;90.20;;;;;;4347355;32;45344;-80
2022/06/18 03:40:43;;;;;;;;;;;22.70;90.00;;;;;;4347274;32;42653;-80
2022/06/18 03:43:11;;;;;;;;;;;22.70;90.10;;;;;;4347391;32;45393;-79
2022/06/18 03:45:43;;;;;;;;;;;22.70;90.10;;;;;;4347229;32;43773;-79
2022/06/18 03:48:16;;;;;;;;;;;22.80;90.00;;;;;;4347575;32;43900;-80
2022/06/18 03:50:43;;;;;;;;;;;22.70;90.10;;;;;;4347223;32;44473;-80
2022/06/18 03:53:10;;;;;;;;;;;22.70;90.10;;;;;;4346833;32;44176;-78
2022/06/18 03:55:37;;;;;;;;;;;22.70;90.20;;;;;;4346852;32;42615;-79
2022/06/18 03:58:04;;;;;;;;;;;22.70;90.20;;;;;;4360691;32;44246;-79
2022/06/18 04:00:32;;;;;;;;;;;22.70;90.10;;;;;;4346959;32;43977;-79
2022/06/18 04:02:59;;;;;;;;;;;22.70;90.10;;;;;;4346784;32;44328;-81
2022/06/18 04:05:27;;;;;;;;;;;22.70;90.10;;;;;;4358929;32;44315;-79
2022/06/18 04:07:54;;;;;;;;;;;22.70;90.40;;;;;;4358903;32;43511;-79
2022/06/18 04:10:21;;;;;;;;;;;22.70;90.20;;;;;;4346868;32;43199;-80
2022/06/18 04:12:49;;;;;;;;;;;22.70;90.30;;;;;;4359344;32;45784;-80
2022/06/18 04:15:20;;;;;;;;;;;22.70;90.20;;;;;;4347706;32;43956;-79
2022/06/18 04:17:48;;;;;;;;;;;22.70;90.10;;;;;;4359099;32;44146;-80
2022/06/18 04:20:23;;;;;;;;;;;22.70;90.50;;;;;;4347029;32;44212;-80
2022/06/18 04:22:50;;;;;;;;;;;22.70;90.40;;;;;;4346419;32;44163;-80
2022/06/18 04:25:18;;;;;;;;;;;22.70;90.20;;;;;;4346443;32;43498;-80
2022/06/18 04:27:45;;;;;;;;;;;22.70;90.40;;;;;;4347104;32;44006;-78
2022/06/18 04:30:14;;;;;;;;;;;22.70;90.40;;;;;;4359164;32;45809;-79
2022/06/18 04:32:42;;;;;;;;;;;22.60;90.30;;;;;;4346312;32;45383;-80
2022/06/18 04:35:10;;;;;;;;;;;22.60;90.30;;;;;;4346407;32;45704;-80
2022/06/18 04:37:38;;;;;;;;;;;22.60;90.30;;;;;;4346556;32;43232;-79
2022/06/18 04:40:06;;;;;;;;;;;22.60;90.40;;;;;;4346297;32;43486;-78
2022/06/18 04:42:33;;;;;;;;;;;22.70;90.60;;;;;;4346701;32;45551;-77
2022/06/18 04:45:00;;;;;;;;;;;22.70;90.60;;;;;;4359868;32;44113;-80
2022/06/18 04:47:27;;;;;;;;;;;22.70;90.60;;;;;;4358543;32;45372;-80
2022/06/18 04:49:54;;;;;;;;;;;22.70;90.70;;;;;;4358998;32;43483;-80
2022/06/18 04:52:22;;;;;;;;;;;22.70;90.70;;;;;;4359084;33;45869;-79
2022/06/18 04:54:52;;;;;;;;;;;22.70;90.70;;;;;;4346585;33;45972;-80
2022/06/18 04:57:20;;;;;;;;;;;22.70;90.90;;;;;;4346479;33;43551;-78
2022/06/18 04:59:48;;;;;;;;;;;22.70;90.90;;;;;;4359907;32;44288;-79
2022/06/18 05:02:25;;;;;;;;;;;22.70;90.80;;;;;;4346476;33;43516;-78
2022/06/18 05:04:56;;;;;;;;;;;22.70;90.90;;;;;;4346539;33;45180;-78
2022/06/18 05:07:26;;;;;;;;;;;22.70;91.00;;;;;;4346766;33;44001;-79
2022/06/18 05:09:53;;;;;;;;;;;22.70;91.00;;;;;;4346410;33;44372;-78
2022/06/18 05:12:20;;;;;;;;;;;22.70;91.60;;;;;;4346093;33;43938;-79
2022/06/18 05:14:47;;;;;;;;;;;22.70;91.10;;;;;;4346481;33;44193;-78
2022/06/18 05:17:17;;;;;;;;;;;22.80;91.10;;;;;;4359384;32;44215;-80
2022/06/18 05:19:45;;;;;;;;;;;22.70;91.10;;;;;;4359976;33;43869;-78
2022/06/18 05:22:13;;;;;;;;;;;22.80;91.30;;;;;;4346280;33;43238;-78
2022/06/18 05:24:40;;;;;;;;;;;22.80;91.20;;;;;;4359753;32;43487;-78
2022/06/18 05:27:11;;;;;;;;;;;22.80;91.30;;;;;;4359312;32;44283;-78
2022/06/18 05:29:38;;;;;;;;;;;22.80;91.30;;;;;;4359405;33;42525;-78
2022/06/18 05:32:06;;;;;;;;;;;22.80;91.40;;;;;;4359506;32;44195;-78
2022/06/18 05:34:33;;;;;;;;;;;22.80;91.40;;;;;;4359725;32;44191;-77
2022/06/18 05:37:00;;;;;;;;;;;22.80;91.40;;;;;;4347088;32;44757;-79
2022/06/18 05:39:27;;;;;;;;;;;22.80;91.50;;;;;;4349142;32;43254;-79
2022/06/18 05:41:54;;;;;;;;;;;22.80;91.60;;;;;;4362148;32;44430;-79
2022/06/18 05:44:21;;;;;;;;;;;22.80;91.50;;;;;;4348830;32;42641;-79
2022/06/18 05:46:48;;;;;;;;;;;22.80;91.70;;;;;;4348836;32;45691;-80
2022/06/18 05:49:16;;;;;;;;;;;22.80;91.70;;;;;;4348617;32;42770;-80
2022/06/18 05:51:43;;;;;;;;;;;22.80;91.70;;;;;;4348469;32;45719;-80
2022/06/18 05:54:10;;;;;;;;;;;22.80;91.80;;;;;;4362305;32;44867;-79
2022/06/18 05:56:37;;;;;;;;;;;22.80;91.90;;;;;;4348791;32;44990;-79
2022/06/18 05:59:09;;;;;;;;;;;22.80;91.80;;;;;;4361701;32;45242;-79
2022/06/18 06:01:37;;;;;;;;;;;22.90;92.10;;;;;;4362028;32;44849;-80
2022/06/18 06:04:04;;;;;;;;;;;22.80;92.10;;;;;;4361226;32;44212;-79
2022/06/18 06:06:31;;;;;;;;;;;22.80;92.20;;;;;;4348868;32;43228;-80
2022/06/18 06:08:58;;;;;;;;;;;22.90;92.30;;;;;;4347996;32;42110;-80
2022/06/18 06:11:28;;;;;;;;;;;22.90;92.40;;;;;;4348143;32;44297;-80
2022/06/18 06:13:56;;;;;;;;;;;22.90;92.50;;;;;;4360944;32;42314;-80
2022/06/18 06:16:24;;;;;;;;;;;22.90;92.50;;;;;;4361974;32;44404;-80
2022/06/18 06:18:52;;;;;;;;;;;22.90;92.60;;;;;;4360850;32;42974;-80
2022/06/18 06:21:19;;;;;;;;;;;22.90;92.70;;;;;;4348582;32;43371;-81
2022/06/18 06:23:47;;;;;;;;;;;22.90;92.90;;;;;;4362154;32;44201;-80
2022/06/18 06:26:33;;;;;;;;;;;22.90;92.80;;;;;;4361472;32;43245;-81
2022/06/18 06:29:00;;;;;;;;;;;22.90;92.80;;;;;;4360777;32;44600;-81
2022/06/18 06:31:28;;;;;;;;;;;22.90;92.80;;;;;;4360308;32;42201;-81
2022/06/18 06:33:55;;;;;;;;;;;22.90;93.00;;;;;;4348178;32;43490;-81
2022/06/18 06:36:22;;;;;;;;;;;22.90;93.00;;;;;;4349017;32;20090;-82
2022/06/18 06:38:50;;;;;;;;;;;23.00;93.00;;;;;;4361766;32;45386;-81
2022/06/18 06:41:19;;;;;;;;;;;23.00;92.90;;;;;;4360663;32;43357;-80
2022/06/18 06:43:46;;;;;;;;;;;23.00;93.00;;;;;;4348372;32;43478;-80
2022/06/18 06:46:15;;;;;;;;;;;23.00;93.00;;;;;;4348309;32;43218;-82
2022/06/18 06:48:42;;;;;;;;;;;23.00;93.00;;;;;;4361200;32;44047;-81
2022/06/18 06:51:24;;;;;;;;;;;23.00;92.90;;;;;;4360264;32;43657;-81
2022/06/18 06:53:51;;;;;;;;;;;23.00;93.10;;;;;;4347794;32;43542;-81
2022/06/18 06:59:06;;;;;;;;;;;23.10;93.10;;;;;;4361315;32;43342;-81
2022/06/18 07:01:34;;;;;;;;;;;23.10;93.30;;;;;;4361027;32;43814;-80
2022/06/18 07:04:05;;;;;;;;;;;23.10;93.20;;;;;;4347805;32;45300;-82
2022/06/18 07:06:35;;;;;;;;;;;23.10;93.20;;;;;;4348857;32;20027;-80
2022/06/18 07:09:03;;;;;;;;;;;23.10;93.50;;;;;;4360143;32;45946;-80
2022/06/18 07:11:30;;;;;;;;;;;23.10;93.70;;;;;;4360199;32;43887;-80
2022/06/18 07:13:57;;;;;;;;;;;23.10;93.30;;;;;;4359607;32;45063;-80
2022/06/18 07:16:24;;;;;;;;;;;23.20;93.50;;;;;;4360746;32;44227;-81
2022/06/18 07:18:53;;;;;;;;;;;23.20;93.50;;;;;;4347808;32;44231;-79
2022/06/18 07:21:21;;;;;;;;;;;23.20;93.60;;;;;;4360679;32;44176;-80
2022/06/18 07:23:49;;;;;;;;;;;23.20;93.70;;;;;;4347752;32;43906;-80
2022/06/18 07:26:17;;;;;;;;;;;23.20;93.90;;;;;;4360096;32;43859;-80
2022/06/18 07:28:44;;;;;;;;;;;23.30;93.90;;;;;;4347368;32;43005;-80
2022/06/18 07:31:18;;;;;;;;;;;23.30;94.10;;;;;;4360930;32;44184;-81
2022/06/18 07:33:46;;;;;;;;;;;23.30;93.60;;;;;;4360567;32;44460;-80
2022/06/18 07:36:13;;;;;;;;;;;23.30;93.40;;;;;;4360384;32;43830;-79
2022/06/18 07:38:40;;;;;;;;;;;23.30;93.30;;;;;;4347376;32;44419;-81
2022/06/18 07:41:07;;;;;;;;;;;23.30;93.30;;;;;;4347095;32;43122;-82
2022/06/18 07:43:36;;;;;;;;;;;23.30;93.40;;;;;;4347073;32;43150;-79
2022/06/18 07:46:04;;;;;;;;;;;23.30;93.30;;;;;;4347298;32;42385;-79
2022/06/18 07:48:31;;;;;;;;;;;23.40;93.60;;;;;;4360292;32;43465;-80
2022/06/18 07:50:58;;;;;;;;;;;23.40;93.70;;;;;;4347298;32;44303;-79
2022/06/18 07:53:26;;;;;;;;;;;23.40;93.40;;;;;;4360705;32;43026;-80
2022/06/18 07:55:56;;;;;;;;;;;23.40;93.50;;;;;;4360098;32;44116;-80
2022/06/18 07:58:23;;;;;;;;;;;23.40;93.70;;;;;;4346803;32;44076;-80
2022/06/18 08:00:50;;;;;;;;;;;23.40;93.70;;;;;;4346355;32;43385;-80
2022/06/18 08:03:17;;;;;;;;;;;23.40;93.80;;;;;;4358972;32;44192;-80
2022/06/18 08:05:46;;;;;;;;;;;23.40;93.60;;;;;;4359514;32;44057;-80
2022/06/18 08:08:14;;;;;;;;;;;23.40;93.50;;;;;;4347244;32;44241;-80
2022/06/18 08:11:00;;;;;;;;;;;23.40;93.60;;;;;;4349547;32;43857;-80
2022/06/18 08:13:50;;;;;;;;;;;23.50;93.60;;;;;;4359934;32;42235;-80
2022/06/18 08:16:18;;;;;;;;;;;23.50;93.70;;;;;;4346545;32;43764;-79
2022/06/18 08:18:45;;;;;;;;;;;23.50;94.00;;;;;;4346550;32;42982;-80
2022/06/18 08:21:33;;;;;;;;;;;23.50;94.00;;;;;;4349066;32;20019;-80
2022/06/18 08:24:02;;;;;;;;;;;23.50;94.00;;;;;;4359820;32;42634;-80
2022/06/18 08:26:30;;;;;;;;;;;23.50;93.90;;;;;;4346382;32;44048;-78
2022/06/18 08:28:57;;;;;;;;;;;23.50;94.00;;;;;;4359769;32;44272;-80
2022/06/18 08:31:26;;;;;;;;;;;23.50;93.90;;;;;;4360563;32;43247;-80
2022/06/18 08:33:54;;;;;;;;;;;23.50;94.10;;;;;;4359935;32;42642;-80
2022/06/18 08:36:21;;;;;;;;;;;23.50;93.90;;;;;;4359647;32;43744;-80
2022/06/18 08:38:49;;;;;;;;;;;23.60;94.30;;;;;;4360219;32;43513;-81
2022/06/18 08:41:22;;;;;;;;;;;23.60;94.40;;;;;;4360145;32;42665;-78
2022/06/18 08:43:52;;;;;;;;;;;23.60;94.30;;;;;;4346709;32;42278;-79
2022/06/18 08:46:36;;;;;;;;;;;23.60;94.40;;;;;;4346779;32;45349;-80
2022/06/18 08:49:06;;;;;;;;;;;23.60;94.20;;;;;;4359743;32;43894;-81
2022/06/18 08:51:33;;;;;;;;;;;23.70;94.20;;;;;;4359458;33;44233;-81
2022/06/18 08:54:11;;;;;;;;;;;23.70;94.80;;;;;;4359998;32;44528;-81
2022/06/18 08:56:45;;;;;;;;;;;23.70;94.80;;;;;;4359670;33;43365;-81
2022/06/18 08:59:22;;;;;;;;;;;23.70;94.60;;;;;;4346839;33;43909;-80
2022/06/18 09:01:57;;;;;;;;;;;23.80;94.70;;;;;;4359552;32;43363;-81
2022/06/18 09:04:52;;;;;;;;;;;23.80;94.40;;;;;;4359723;33;43243;-81
2022/06/18 09:07:35;;;;;;;;;;;23.80;94.50;;;;;;4346649;33;42050;-82
2022/06/18 09:10:04;;;;;;;;;;;23.80;94.50;;;;;;4347236;33;20868;-81
2022/06/18 09:12:35;;;;;;;;;;;23.80;94.40;;;;;;4362178;32;43026;-83
2022/06/18 09:15:06;;;;;;;;;;;23.90;94.30;;;;;;4363057;32;44218;-81
2022/06/18 09:17:37;;;;;;;;;;;23.90;94.30;;;;;;4362788;32;43909;-82
2022/06/18 09:20:14;;;;;;;;;;;23.90;94.30;;;;;;4362414;32;44227;-80
2022/06/18 09:22:47;;;;;;;;;;;23.90;94.70;;;;;;4349691;32;43185;-81
2022/06/18 09:25:15;;;;;;;;;;;24.00;94.50;;;;;;4362871;32;43478;-80
2022/06/18 09:27:45;;;;;;;;;;;24.00;94.40;;;;;;4349475;32;44224;-82
2022/06/18 09:30:34;;;;;;;;;;;24.00;94.70;;;;;;4362363;32;43531;-83
2022/06/18 09:33:04;;;;;;;;;;;24.00;94.70;;;;;;4349116;32;42604;-80
2022/06/18 09:35:36;;;;;;;;;;;24.00;94.60;;;;;;4362707;32;43428;-81
2022/06/18 09:38:05;;;;;;;;;;;24.00;94.60;;;;;;4362071;32;44029;-79
2022/06/18 09:40:34;;;;;;;;;;;24.00;94.80;;;;;;4363385;32;20005;-81
2022/06/18 09:43:11;;;;;;;;;;;24.00;94.70;;;;;;4362222;32;45094;-81
2022/06/18 09:45:43;;;;;;;;;;;24.10;94.80;;;;;;4362637;32;43969;-82
2022/06/18 09:48:11;;;;;;;;;;;24.10;94.90;;;;;;4348867;32;43076;-78
2022/06/18 09:50:38;;;;;;;;;;;24.10;94.80;;;;;;4362602;32;44086;-82
2022/06/18 09:53:13;;;;;;;;;;;24.10;94.90;;;;;;4362187;32;44205;-81
2022/06/18 09:55:44;;;;;;;;;;;24.10;94.90;;;;;;4348875;32;44043;-80
2022/06/18 09:58:14;;;;;;;;;;;24.20;95.10;;;;;;4361709;32;44752;-81
2022/06/18 10:00:42;;;;;;;;;;;24.10;95.00;;;;;;4349023;32;43919;-81
2022/06/18 10:06:52;;;;;;;;;;;24.20;95.00;;;;;;4348465;32;46046;-84
2022/06/18 10:09:16;;;;;;;;;;;24.20;95.30;;;;;;4361573;32;46352;-83
2022/06/18 10:11:43;;;;;;;;;;;24.30;95.60;;;;;;4361978;32;19998;-79
2022/06/18 10:14:21;;;;;;;;;;;24.30;95.30;;;;;;4348648;32;44128;-82
2022/06/18 10:16:57;;;;;;;;;;;24.30;95.00;;;;;;4362156;32;43347;-81
2022/06/18 10:19:43;;;;;;;;;;;24.30;95.00;;;;;;4362124;32;43561;-85
2022/06/18 10:22:10;;;;;;;;;;;24.40;95.20;;;;;;4348725;32;44359;-84
2022/06/18 10:24:37;;;;;;;;;;;24.40;94.80;;;;;;4348149;32;43165;-85
2022/06/18 10:27:18;;;;;;;;;;;24.40;94.80;;;;;;4361973;32;43207;-81
2022/06/18 10:29:54;;;;;;;;;;;24.40;94.50;;;;;;4361833;32;43667;-80
2022/06/18 10:32:28;;;;;;;;;;;24.40;94.50;;;;;;4361457;32;44107;-80
2022/06/18 10:35:01;;;;;;;;;;;24.50;94.40;;;;;;4361000;32;44055;-80
2022/06/18 10:37:31;;;;;;;;;;;24.50;94.50;;;;;;4361986;32;45570;-83
2022/06/18 10:40:27;;;;;;;;;;;24.50;94.70;;;;;;4361699;32;46466;-81
2022/06/18 10:42:57;;;;;;;;;;;24.50;94.90;;;;;;4349592;32;20013;-85
2022/06/18 10:45:39;;;;;;;;;;;24.60;94.30;;;;;;4361738;32;44441;-80
2022/06/18 10:48:14;;;;;;;;;;;24.60;94.00;;;;;;4361670;32;46086;-82
2022/06/18 10:51:04;;;;;;;;;;;24.60;94.10;;;;;;4361174;32;43954;-80
2022/06/18 10:53:44;;;;;;;;;;;24.60;94.20;;;;;;4348476;32;44010;-78
2022/06/18 10:56:16;;;;;;;;;;;24.60;94.10;;;;;;4361632;32;44515;-81
2022/06/18 10:58:47;;;;;;;;;;;24.70;94.00;;;;;;4361503;32;44893;-84
2022/06/18 11:01:14;;;;;;;;;;;24.70;93.80;;;;;;4361435;32;43895;-83
2022/06/18 11:03:51;;;;;;;;;;;24.70;93.70;;;;;;4361526;32;44991;-87
2022/06/18 11:06:19;;;;;;;;;;;24.70;93.70;;;;;;4347916;32;42277;-84
2022/06/18 11:08:53;;;;;;;;;;;24.80;94.10;;;;;;4360029;32;43801;-81
2022/06/18 11:11:23;;;;;;;;;;;24.80;93.90;;;;;;4360921;32;43450;-78
2022/06/18 11:13:50;;;;;;;;;;;24.80;93.80;;;;;;4361801;32;20047;-82
2022/06/18 11:16:19;;;;;;;;;;;24.90;93.90;;;;;;4347573;32;43781;-79
2022/06/18 11:18:46;;;;;;;;;;;24.90;93.80;;;;;;4347318;32;44962;-81
2022/06/18 11:21:28;;;;;;;;;;;24.90;93.70;;;;;;4347457;32;43510;-82
2022/06/18 11:23:58;;;;;;;;;;;24.90;93.90;;;;;;4347562;32;42332;-84
2022/06/18 11:26:37;;;;;;;;;;;25.00;93.80;;;;;;4349138;32;44196;-81
2022/06/18 11:29:10;;;;;;;;;;;25.00;93.90;;;;;;4347438;32;43912;-85
2022/06/18 11:31:44;;;;;;;;;;;25.00;93.80;;;;;;4361010;32;43872;-82
2022/06/18 11:34:27;;;;;;;;;;;25.10;94.00;;;;;;4360116;32;43754;-77
2022/06/18 11:36:58;;;;;;;;;;;25.10;93.50;;;;;;4360803;32;44174;-79
2022/06/18 11:39:34;;;;;;;;;;;25.10;93.30;;;;;;4347529;32;43487;-84
2022/06/18 11:42:06;;;;;;;;;;;25.10;93.20;;;;;;4347800;32;43919;-84
2022/06/18 11:44:38;;;;;;;;;;;25.10;93.30;;;;;;4360451;32;20043;-78
2022/06/18 11:47:24;;;;;;;;;;;25.20;93.50;;;;;;4361023;32;44259;-81
2022/06/18 11:50:10;;;;;;;;;;;25.20;93.40;;;;;;4360060;32;44656;-84
2022/06/18 11:52:55;;;;;;;;;;;25.20;93.40;;;;;;4347122;32;44044;-85
2022/06/18 11:55:25;;;;;;;;;;;25.20;93.40;;;;;;4360646;32;43273;-84
2022/06/18 11:57:52;;;;;;;;;;;25.20;93.50;;;;;;4360128;32;43193;-83
2022/06/18 12:00:45;;;;;;;;;;;25.30;93.30;;;;;;4348274;32;44240;-80
2022/06/18 12:03:31;;;;;;;;;;;25.30;93.80;;;;;;4346977;32;43850;-84
2022/06/18 12:06:18;;;;;;;;;;;25.30;93.40;;;;;;4347047;32;42931;-82
2022/06/18 12:09:05;;;;;;;;;;;25.40;93.70;;;;;;4327848;32;45679;-83
2022/06/18 12:11:36;;;;;;;;;;;25.40;93.60;;;;;;4359331;32;43927;-81
2022/06/18 12:14:07;;;;;;;;;;;25.40;93.40;;;;;;4360294;32;45283;-83
2022/06/18 12:16:37;;;;;;;;;;;25.40;93.20;;;;;;4360606;32;44050;-82
2022/06/18 12:19:10;;;;;;;;;;;25.50;93.40;;;;;;4360385;32;43475;-84
2022/06/18 12:21:43;;;;;;;;;;;25.50;93.80;;;;;;4359424;32;43275;-81
2022/06/18 12:24:37;;;;;;;;;;;25.50;93.30;;;;;;4359965;32;44300;-84
2022/06/18 12:27:10;;;;;;;;;;;25.60;93.20;;;;;;4359851;32;44194;-82
2022/06/18 12:29:48;;;;;;;;;;;25.60;93.20;;;;;;4360480;32;43658;-82
2022/06/18 12:32:23;;;;;;;;;;;25.60;93.20;;;;;;4347323;32;43349;-82
2022/06/18 12:35:12;;;;;;;;;;;25.60;93.20;;;;;;4346862;32;43723;-83
2022/06/18 12:37:58;;;;;;;;;;;25.60;93.30;;;;;;4346865;32;44000;-85
2022/06/18 12:40:29;;;;;;;;;;;25.60;93.00;;;;;;4346472;32;46143;-77
2022/06/18 12:43:02;;;;;;;;;;;25.60;93.10;;;;;;4360059;32;44142;-82
2022/06/18 12:45:35;;;;;;;;;;;25.70;92.80;;;;;;4359884;32;44360;-81
2022/06/18 12:48:06;;;;;;;;;;;25.70;93.00;;;;;;4346738;32;43391;-83
2022/06/18 12:50:54;;;;;;;;;;;25.70;93.20;;;;;;4359897;32;44153;-82
2022/06/18 12:53:36;;;;;;;;;;;25.70;93.00;;;;;;4346977;33;45760;-81
2022/06/18 12:56:06;;;;;;;;;;;25.70;92.70;;;;;;4359859;33;43239;-82
2022/06/18 12:58:47;;;;;;;;;;;25.70;92.80;;;;;;4359963;32;43906;-82
2022/06/18 13:01:23;;;;;;;;;;;25.80;93.00;;;;;;4359867;32;44029;-82
2022/06/18 13:04:06;;;;;;;;;;;25.80;93.30;;;;;;4347072;33;43562;-82
2022/06/18 13:06:37;;;;;;;;;;;25.80;92.80;;;;;;4346169;33;45056;-82
2022/06/18 13:09:19;;;;;;;;;;;25.80;92.90;;;;;;4359494;33;43480;-83
2022/06/18 13:12:14;;;;;;;;;;;25.90;93.30;;;;;;4359639;33;43800;-82
2022/06/18 13:14:49;;;;;;;;;;;25.90;93.10;;;;;;4360097;33;43909;-83
2022/06/18 13:17:16;;;;;;;;;;;25.90;93.00;;;;;;4361185;33;20394;-84
2022/06/18 13:19:49;;;;;;;;;;;25.90;93.10;;;;;;4359522;33;43053;-83
2022/06/18 13:22:16;;;;;;;;;;;26.00;93.10;;;;;;4360107;33;43922;-79
2022/06/18 13:30:23;;;;;;;;;;;26.00;93.50;;;;;;4359613;33;43260;-84
2022/06/18 13:33:03;;;;;;;;;;;26.10;93.40;;;;;;4346246;33;44184;-85
2022/06/18 13:35:30;;;;;;;;;;;26.10;93.20;;;;;;4346007;33;42928;-84
2022/06/18 13:38:00;;;;;;;;;;;26.10;93.20;;;;;;4359065;32;44776;-86
2022/06/18 13:40:27;;;;;;;;;;;26.10;93.10;;;;;;4346577;33;43643;-84
2022/06/18 13:42:56;;;;;;;;;;;26.20;93.10;;;;;;4359742;33;45728;-81
2022/06/18 13:45:26;;;;;;;;;;;26.20;93.20;;;;;;4359859;32;44183;-86
2022/06/18 13:48:09;;;;;;;;;;;26.20;93.00;;;;;;4360964;33;20012;-83
2022/06/18 13:50:47;;;;;;;;;;;26.20;92.80;;;;;;4359694;33;44279;-83
2022/06/18 13:53:43;;;;;;;;;;;26.20;93.10;;;;;;4359369;33;44040;-84
2022/06/18 13:56:16;;;;;;;;;;;26.30;93.20;;;;;;4344520;33;43210;-82
2022/06/18 13:58:50;;;;;;;;;;;26.30;93.30;;;;;;4347503;32;44552;-84
2022/06/18 14:01:19;;;;;;;;;;;26.30;93.10;;;;;;4362158;32;42764;-80
2022/06/18 14:03:51;;;;;;;;;;;26.40;93.30;;;;;;4362527;32;44240;-83
2022/06/18 14:06:20;;;;;;;;;;;26.40;93.10;;;;;;4348605;32;42749;-83
2022/06/18 14:08:52;;;;;;;;;;;26.40;93.10;;;;;;4348451;32;43352;-83
2022/06/18 14:11:28;;;;;;;;;;;26.40;93.10;;;;;;4348934;32;43143;-83
2022/06/18 14:13:57;;;;;;;;;;;26.40;93.30;;;;;;4362119;32;43490;-81
2022/06/18 14:16:27;;;;;;;;;;;26.40;93.10;;;;;;4360641;32;42293;-83
2022/06/18 14:19:08;;;;;;;;;;;26.50;93.10;;;;;;4349143;32;19997;-84
2022/06/18 14:21:36;;;;;;;;;;;26.50;93.20;;;;;;4348688;32;42954;-84
2022/06/18 14:24:04;;;;;;;;;;;26.50;93.20;;;;;;4362001;32;44165;-84
2022/06/18 14:26:39;;;;;;;;;;;26.60;93.10;;;;;;4349611;32;43471;-84
2022/06/18 14:29:06;;;;;;;;;;;26.60;92.90;;;;;;4348426;32;43559;-83
2022/06/18 14:31:38;;;;;;;;;;;26.60;93.10;;;;;;4360286;32;44303;-84
2022/06/18 14:34:05;;;;;;;;;;;26.60;93.00;;;;;;4360766;32;43210;-83
2022/06/18 14:36:35;;;;;;;;;;;26.60;92.80;;;;;;4348469;32;44208;-85
2022/06/18 14:39:04;;;;;;;;;;;26.70;92.70;;;;;;4361850;32;45478;-83
2022/06/18 14:41:35;;;;;;;;;;;26.60;92.60;;;;;;4348803;32;44309;-81
2022/06/18 14:44:35;;;;;;;;;;;26.70;92.50;;;;;;4348261;32;43258;-83
2022/06/18 14:47:03;;;;;;;;;;;26.70;92.60;;;;;;4360233;32;43020;-81
2022/06/18 14:49:42;;;;;;;;;;;26.70;92.60;;;;;;4362099;32;19993;-82
2022/06/18 14:52:16;;;;;;;;;;;26.70;92.50;;;;;;4361288;32;43725;-83
2022/06/18 14:54:59;;;;;;;;;;;26.80;92.60;;;;;;4361386;32;42739;-83
2022/06/18 14:57:45;;;;;;;;;;;26.70;92.70;;;;;;4348198;32;43712;-81
2022/06/18 15:00:23;;;;;;;;;;;26.80;92.80;;;;;;4361538;32;44685;-81